sensor_id;sensor_type;location;lat;lon;timestamp;P1;durP1;ratioP1;P2;durP2;ratioP2
38715;SDS011;24833;49.324;8.694;2023-08-06T00:02:26;1.95;;;1.80;;
38715;SDS011;24833;49.324;8.694;2023-08-06T00:04:53;2.97;;;2.60;;
38715;SDS011;24833;49.324;8.694;2023-08-06T00:07:20;3.15;;;2.20;;
38715;SDS011;24833;49.324;8.694;2023-08-06T00:09:47;2.47;;;1.75;;
38715;SDS011;24833;49.324;8.694;2023-08-06T00:12:14;4.00;;;2.38;;
38715;SDS011;24833;49.324;8.694;2023-08-06T00:14:41;2.35;;;1.92;;
38715;SDS011;24833;49.324;8.694;2023-08-06T00:17:09;2.42;;;1.77;;
38715;SDS011;24833;49.324;8.694;2023-08-06T00:19:36;1.95;;;1.85;;
38715;SDS011;24833;49.324;8.694;2023-08-06T00:22:03;2.20;;;2.00;;
38715;SDS011;24833;49.324;8.694;2023-08-06T00:24:30;2.25;;;2.05;;
38715;SDS011;24833;49.324;8.694;2023-08-06T00:26:57;5.05;;;2.13;;
38715;SDS011;24833;49.324;8.694;2023-08-06T00:29:24;1.70;;;1.60;;
38715;SDS011;24833;49.324;8.694;2023-08-06T00:31:52;1.92;;;1.80;;
38715;SDS011;24833;49.324;8.694;2023-08-06T00:34:19;2.72;;;2.00;;
38715;SDS011;24833;49.324;8.694;2023-08-06T00:36:46;2.53;;;2.05;;
38715;SDS011;24833;49.324;8.694;2023-08-06T00:39:13;3.15;;;1.80;;
38715;SDS011;24833;49.324;8.694;2023-08-06T00:41:40;2.33;;;2.13;;
38715;SDS011;24833;49.324;8.694;2023-08-06T00:44:07;2.17;;;1.77;;
38715;SDS011;24833;49.324;8.694;2023-08-06T00:46:34;2.15;;;1.95;;
38715;SDS011;24833;49.324;8.694;2023-08-06T00:49:01;2.90;;;1.90;;
38715;SDS011;24833;49.324;8.694;2023-08-06T00:51:30;2.92;;;1.85;;
38715;SDS011;24833;49.324;8.694;2023-08-06T00:53:58;2.42;;;1.90;;
38715;SDS011;24833;49.324;8.694;2023-08-06T00:56:25;1.75;;;1.65;;
38715;SDS011;24833;49.324;8.694;2023-08-06T00:58:52;2.28;;;1.85;;
38715;SDS011;24833;49.324;8.694;2023-08-06T01:01:20;3.42;;;1.67;;
38715;SDS011;24833;49.324;8.694;2023-08-06T01:03:47;2.00;;;1.80;;
38715;SDS011;24833;49.324;8.694;2023-08-06T01:06:15;2.38;;;1.67;;
38715;SDS011;24833;49.324;8.694;2023-08-06T01:09:06;2.08;;;1.88;;
38715;SDS011;24833;49.324;8.694;2023-08-06T01:12:17;2.55;;;1.80;;
38715;SDS011;24833;49.324;8.694;2023-08-06T01:14:58;2.10;;;1.90;;
38715;SDS011;24833;49.324;8.694;2023-08-06T01:17:33;2.97;;;1.98;;
38715;SDS011;24833;49.324;8.694;2023-08-06T01:20:02;4.95;;;1.90;;
38715;SDS011;24833;49.324;8.694;2023-08-06T01:22:30;3.63;;;1.58;;
38715;SDS011;24833;49.324;8.694;2023-08-06T01:24:57;1.75;;;1.65;;
38715;SDS011;24833;49.324;8.694;2023-08-06T01:27:35;1.75;;;1.65;;
38715;SDS011;24833;49.324;8.694;2023-08-06T01:30:20;6.82;;;2.45;;
38715;SDS011;24833;49.324;8.694;2023-08-06T01:33:00;3.75;;;1.88;;
38715;SDS011;24833;49.324;8.694;2023-08-06T01:35:30;1.60;;;1.50;;
38715;SDS011;24833;49.324;8.694;2023-08-06T01:38:00;2.25;;;2.05;;
38715;SDS011;24833;49.324;8.694;2023-08-06T01:40:29;1.70;;;1.60;;
38715;SDS011;24833;49.324;8.694;2023-08-06T01:42:57;2.92;;;1.63;;
38715;SDS011;24833;49.324;8.694;2023-08-06T01:45:24;2.10;;;1.95;;
38715;SDS011;24833;49.324;8.694;2023-08-06T01:47:51;1.77;;;1.58;;
38715;SDS011;24833;49.324;8.694;2023-08-06T01:50:18;2.67;;;1.60;;
38715;SDS011;24833;49.324;8.694;2023-08-06T01:52:45;1.77;;;1.60;;
38715;SDS011;24833;49.324;8.694;2023-08-06T01:55:12;2.65;;;1.85;;
38715;SDS011;24833;49.324;8.694;2023-08-06T01:57:39;2.08;;;1.77;;
38715;SDS011;24833;49.324;8.694;2023-08-06T02:00:06;3.72;;;1.75;;
38715;SDS011;24833;49.324;8.694;2023-08-06T02:02:39;2.38;;;2.17;;
38715;SDS011;24833;49.324;8.694;2023-08-06T02:05:09;4.57;;;1.80;;
38715;SDS011;24833;49.324;8.694;2023-08-06T02:07:38;3.97;;;1.80;;
38715;SDS011;24833;49.324;8.694;2023-08-06T02:10:06;1.60;;;1.50;;
38715;SDS011;24833;49.324;8.694;2023-08-06T02:12:33;3.42;;;1.65;;
38715;SDS011;24833;49.324;8.694;2023-08-06T02:15:00;1.63;;;1.50;;
38715;SDS011;24833;49.324;8.694;2023-08-06T02:17:28;1.67;;;1.48;;
38715;SDS011;24833;49.324;8.694;2023-08-06T02:19:56;1.92;;;1.48;;
38715;SDS011;24833;49.324;8.694;2023-08-06T02:22:23;2.05;;;1.85;;
38715;SDS011;24833;49.324;8.694;2023-08-06T02:24:50;1.80;;;1.50;;
38715;SDS011;24833;49.324;8.694;2023-08-06T02:27:17;3.78;;;1.60;;
38715;SDS011;24833;49.324;8.694;2023-08-06T02:29:44;5.63;;;1.65;;
38715;SDS011;24833;49.324;8.694;2023-08-06T02:32:11;7.00;;;1.83;;
38715;SDS011;24833;49.324;8.694;2023-08-06T02:34:38;2.10;;;1.55;;
38715;SDS011;24833;49.324;8.694;2023-08-06T02:37:06;1.42;;;1.33;;
38715;SDS011;24833;49.324;8.694;2023-08-06T02:39:34;2.95;;;1.60;;
38715;SDS011;24833;49.324;8.694;2023-08-06T02:42:02;3.08;;;1.50;;
38715;SDS011;24833;49.324;8.694;2023-08-06T02:44:30;3.72;;;1.30;;
38715;SDS011;24833;49.324;8.694;2023-08-06T02:46:57;2.38;;;1.38;;
38715;SDS011;24833;49.324;8.694;2023-08-06T02:49:24;1.38;;;1.27;;
38715;SDS011;24833;49.324;8.694;2023-08-06T02:51:52;1.50;;;1.40;;
38715;SDS011;24833;49.324;8.694;2023-08-06T02:54:19;3.33;;;1.48;;
38715;SDS011;24833;49.324;8.694;2023-08-06T02:56:46;3.13;;;1.40;;
38715;SDS011;24833;49.324;8.694;2023-08-06T02:59:21;1.40;;;1.30;;
38715;SDS011;24833;49.324;8.694;2023-08-06T03:02:00;3.20;;;1.20;;
38715;SDS011;24833;49.324;8.694;2023-08-06T03:04:37;1.65;;;1.42;;
38715;SDS011;24833;49.324;8.694;2023-08-06T03:07:05;4.32;;;1.40;;
38715;SDS011;24833;49.324;8.694;2023-08-06T03:09:40;1.98;;;1.48;;
38715;SDS011;24833;49.324;8.694;2023-08-06T03:12:07;1.88;;;1.35;;
38715;SDS011;24833;49.324;8.694;2023-08-06T03:14:36;2.60;;;1.50;;
38715;SDS011;24833;49.324;8.694;2023-08-06T03:17:05;1.38;;;1.27;;
38715;SDS011;24833;49.324;8.694;2023-08-06T03:19:32;2.28;;;1.50;;
38715;SDS011;24833;49.324;8.694;2023-08-06T03:22:00;2.40;;;1.42;;
38715;SDS011;24833;49.324;8.694;2023-08-06T03:24:29;2.03;;;1.92;;
38715;SDS011;24833;49.324;8.694;2023-08-06T03:26:56;2.22;;;1.40;;
38715;SDS011;24833;49.324;8.694;2023-08-06T03:29:24;1.33;;;1.23;;
38715;SDS011;24833;49.324;8.694;2023-08-06T03:31:52;2.60;;;1.27;;
38715;SDS011;24833;49.324;8.694;2023-08-06T03:34:19;1.65;;;1.40;;
38715;SDS011;24833;49.324;8.694;2023-08-06T03:36:48;2.03;;;1.50;;
38715;SDS011;24833;49.324;8.694;2023-08-06T03:39:15;3.17;;;1.70;;
38715;SDS011;24833;49.324;8.694;2023-08-06T03:41:42;2.00;;;1.35;;
38715;SDS011;24833;49.324;8.694;2023-08-06T03:44:09;2.42;;;1.50;;
38715;SDS011;24833;49.324;8.694;2023-08-06T03:46:36;1.67;;;1.48;;
38715;SDS011;24833;49.324;8.694;2023-08-06T03:49:05;3.47;;;1.45;;
38715;SDS011;24833;49.324;8.694;2023-08-06T03:51:33;4.57;;;1.60;;
38715;SDS011;24833;49.324;8.694;2023-08-06T03:54:01;3.13;;;1.50;;
38715;SDS011;24833;49.324;8.694;2023-08-06T03:56:29;3.13;;;1.38;;
38715;SDS011;24833;49.324;8.694;2023-08-06T03:58:56;1.75;;;1.23;;
38715;SDS011;24833;49.324;8.694;2023-08-06T04:01:23;2.25;;;1.15;;
38715;SDS011;24833;49.324;8.694;2023-08-06T04:03:52;4.70;;;1.50;;
38715;SDS011;24833;49.324;8.694;2023-08-06T04:06:19;3.75;;;1.50;;
38715;SDS011;24833;49.324;8.694;2023-08-06T04:08:46;1.48;;;1.10;;
38715;SDS011;24833;49.324;8.694;2023-08-06T04:11:13;4.85;;;1.50;;
38715;SDS011;24833;49.324;8.694;2023-08-06T04:13:44;3.55;;;1.30;;
38715;SDS011;24833;49.324;8.694;2023-08-06T04:16:11;5.88;;;1.20;;
38715;SDS011;24833;49.324;8.694;2023-08-06T04:18:39;1.55;;;0.90;;
38715;SDS011;24833;49.324;8.694;2023-08-06T04:21:07;5.22;;;1.35;;
38715;SDS011;24833;49.324;8.694;2023-08-06T04:23:34;1.90;;;0.88;;
38715;SDS011;24833;49.324;8.694;2023-08-06T04:26:04;1.30;;;0.80;;
38715;SDS011;24833;49.324;8.694;2023-08-06T04:28:34;3.38;;;1.30;;
38715;SDS011;24833;49.324;8.694;2023-08-06T04:31:01;2.85;;;1.02;;
38715;SDS011;24833;49.324;8.694;2023-08-06T04:33:31;1.70;;;0.70;;
38715;SDS011;24833;49.324;8.694;2023-08-06T04:36:02;3.03;;;1.02;;
38715;SDS011;24833;49.324;8.694;2023-08-06T04:38:29;2.05;;;0.93;;
38715;SDS011;24833;49.324;8.694;2023-08-06T04:40:57;4.85;;;0.82;;
38715;SDS011;24833;49.324;8.694;2023-08-06T04:43:25;1.27;;;0.75;;
38715;SDS011;24833;49.324;8.694;2023-08-06T04:45:54;3.22;;;1.00;;
38715;SDS011;24833;49.324;8.694;2023-08-06T04:48:22;1.45;;;0.60;;
38715;SDS011;24833;49.324;8.694;2023-08-06T04:50:50;3.53;;;0.88;;
38715;SDS011;24833;49.324;8.694;2023-08-06T04:53:17;0.95;;;0.57;;
38715;SDS011;24833;49.324;8.694;2023-08-06T04:55:44;3.97;;;0.95;;
38715;SDS011;24833;49.324;8.694;2023-08-06T04:58:12;2.00;;;0.63;;
38715;SDS011;24833;49.324;8.694;2023-08-06T05:00:39;1.35;;;0.70;;
38715;SDS011;24833;49.324;8.694;2023-08-06T05:03:06;1.67;;;0.70;;
38715;SDS011;24833;49.324;8.694;2023-08-06T05:05:34;0.80;;;0.60;;
38715;SDS011;24833;49.324;8.694;2023-08-06T05:08:01;1.58;;;0.80;;
38715;SDS011;24833;49.324;8.694;2023-08-06T05:10:28;2.58;;;0.82;;
38715;SDS011;24833;49.324;8.694;2023-08-06T05:12:55;0.75;;;0.65;;
38715;SDS011;24833;49.324;8.694;2023-08-06T05:15:23;5.13;;;1.00;;
38715;SDS011;24833;49.324;8.694;2023-08-06T05:17:51;2.83;;;0.90;;
38715;SDS011;24833;49.324;8.694;2023-08-06T05:20:19;3.28;;;0.80;;
38715;SDS011;24833;49.324;8.694;2023-08-06T05:22:46;2.70;;;1.00;;
38715;SDS011;24833;49.324;8.694;2023-08-06T05:25:14;2.60;;;0.93;;
38715;SDS011;24833;49.324;8.694;2023-08-06T05:27:41;3.08;;;0.90;;
38715;SDS011;24833;49.324;8.694;2023-08-06T05:30:08;1.48;;;0.75;;
38715;SDS011;24833;49.324;8.694;2023-08-06T05:32:36;4.65;;;1.02;;
38715;SDS011;24833;49.324;8.694;2023-08-06T05:35:03;1.88;;;0.95;;
38715;SDS011;24833;49.324;8.694;2023-08-06T05:37:31;1.33;;;0.82;;
38715;SDS011;24833;49.324;8.694;2023-08-06T05:39:58;1.85;;;0.70;;
38715;SDS011;24833;49.324;8.694;2023-08-06T05:42:25;1.60;;;0.63;;
38715;SDS011;24833;49.324;8.694;2023-08-06T05:44:53;1.92;;;0.75;;
38715;SDS011;24833;49.324;8.694;2023-08-06T05:47:20;3.50;;;1.05;;
38715;SDS011;24833;49.324;8.694;2023-08-06T05:49:48;2.22;;;0.98;;
38715;SDS011;24833;49.324;8.694;2023-08-06T05:52:15;1.90;;;0.80;;
38715;SDS011;24833;49.324;8.694;2023-08-06T05:54:42;2.13;;;0.80;;
38715;SDS011;24833;49.324;8.694;2023-08-06T05:57:09;2.28;;;0.70;;
38715;SDS011;24833;49.324;8.694;2023-08-06T05:59:36;1.60;;;0.50;;
38715;SDS011;24833;49.324;8.694;2023-08-06T06:02:03;0.68;;;0.45;;
38715;SDS011;24833;49.324;8.694;2023-08-06T06:04:30;1.77;;;0.85;;
38715;SDS011;24833;49.324;8.694;2023-08-06T06:06:57;3.83;;;0.68;;
38715;SDS011;24833;49.324;8.694;2023-08-06T06:09:24;1.02;;;0.70;;
38715;SDS011;24833;49.324;8.694;2023-08-06T06:11:51;2.30;;;0.63;;
38715;SDS011;24833;49.324;8.694;2023-08-06T06:14:19;1.77;;;0.75;;
38715;SDS011;24833;49.324;8.694;2023-08-06T06:16:46;1.75;;;0.70;;
38715;SDS011;24833;49.324;8.694;2023-08-06T06:19:13;2.38;;;0.80;;
38715;SDS011;24833;49.324;8.694;2023-08-06T06:21:40;2.05;;;0.70;;
38715;SDS011;24833;49.324;8.694;2023-08-06T06:24:07;2.65;;;0.65;;
38715;SDS011;24833;49.324;8.694;2023-08-06T06:26:34;1.38;;;0.60;;
38715;SDS011;24833;49.324;8.694;2023-08-06T06:29:01;1.27;;;0.50;;
38715;SDS011;24833;49.324;8.694;2023-08-06T06:31:31;1.98;;;0.40;;
38715;SDS011;24833;49.324;8.694;2023-08-06T06:33:58;1.10;;;0.30;;
38715;SDS011;24833;49.324;8.694;2023-08-06T06:36:25;2.78;;;0.60;;
38715;SDS011;24833;49.324;8.694;2023-08-06T06:38:52;1.90;;;0.60;;
38715;SDS011;24833;49.324;8.694;2023-08-06T06:41:19;0.98;;;0.40;;
38715;SDS011;24833;49.324;8.694;2023-08-06T06:43:46;2.28;;;0.65;;
38715;SDS011;24833;49.324;8.694;2023-08-06T06:46:13;0.82;;;0.30;;
38715;SDS011;24833;49.324;8.694;2023-08-06T06:48:40;0.57;;;0.40;;
38715;SDS011;24833;49.324;8.694;2023-08-06T06:51:07;0.82;;;0.50;;
38715;SDS011;24833;49.324;8.694;2023-08-06T06:53:34;0.93;;;0.30;;
38715;SDS011;24833;49.324;8.694;2023-08-06T06:56:02;2.28;;;0.47;;
38715;SDS011;24833;49.324;8.694;2023-08-06T06:58:31;0.50;;;0.50;;
38715;SDS011;24833;49.324;8.694;2023-08-06T07:00:59;1.38;;;0.55;;
38715;SDS011;24833;49.324;8.694;2023-08-06T07:03:26;2.20;;;0.50;;
38715;SDS011;24833;49.324;8.694;2023-08-06T07:05:56;1.00;;;0.30;;
38715;SDS011;24833;49.324;8.694;2023-08-06T07:08:27;0.98;;;0.47;;
38715;SDS011;24833;49.324;8.694;2023-08-06T07:11:04;1.23;;;0.40;;
38715;SDS011;24833;49.324;8.694;2023-08-06T07:13:34;0.60;;;0.50;;
38715;SDS011;24833;49.324;8.694;2023-08-06T07:16:01;0.52;;;0.30;;
38715;SDS011;24833;49.324;8.694;2023-08-06T07:18:28;0.20;;;0.20;;
38715;SDS011;24833;49.324;8.694;2023-08-06T07:20:55;0.75;;;0.40;;
38715;SDS011;24833;49.324;8.694;2023-08-06T07:23:23;0.98;;;0.40;;
38715;SDS011;24833;49.324;8.694;2023-08-06T07:25:52;0.68;;;0.22;;
38715;SDS011;24833;49.324;8.694;2023-08-06T07:28:19;0.38;;;0.38;;
38715;SDS011;24833;49.324;8.694;2023-08-06T07:30:46;0.95;;;0.32;;
38715;SDS011;24833;49.324;8.694;2023-08-06T07:33:14;0.30;;;0.25;;
38715;SDS011;24833;49.324;8.694;2023-08-06T07:35:41;0.30;;;0.30;;
38715;SDS011;24833;49.324;8.694;2023-08-06T07:38:09;0.30;;;0.20;;
38715;SDS011;24833;49.324;8.694;2023-08-06T07:40:36;1.35;;;0.63;;
38715;SDS011;24833;49.324;8.694;2023-08-06T07:43:05;0.20;;;0.20;;
38715;SDS011;24833;49.324;8.694;2023-08-06T07:45:32;1.08;;;0.52;;
38715;SDS011;24833;49.324;8.694;2023-08-06T07:48:02;0.70;;;0.30;;
38715;SDS011;24833;49.324;8.694;2023-08-06T07:50:29;1.92;;;0.22;;
38715;SDS011;24833;49.324;8.694;2023-08-06T07:52:57;0.45;;;0.35;;
38715;SDS011;24833;49.324;8.694;2023-08-06T07:55:24;0.65;;;0.30;;
38715;SDS011;24833;49.324;8.694;2023-08-06T07:57:52;0.52;;;0.32;;
38715;SDS011;24833;49.324;8.694;2023-08-06T08:00:20;0.30;;;0.30;;
38715;SDS011;24833;49.324;8.694;2023-08-06T08:02:47;0.85;;;0.30;;
38715;SDS011;24833;49.324;8.694;2023-08-06T08:05:14;4.13;;;0.47;;
38715;SDS011;24833;49.324;8.694;2023-08-06T08:07:42;0.50;;;0.30;;
38715;SDS011;24833;49.324;8.694;2023-08-06T08:10:10;1.25;;;0.20;;
38715;SDS011;24833;49.324;8.694;2023-08-06T08:12:37;1.05;;;0.32;;
38715;SDS011;24833;49.324;8.694;2023-08-06T08:15:05;0.50;;;0.40;;
38715;SDS011;24833;49.324;8.694;2023-08-06T08:17:32;0.20;;;0.20;;
38715;SDS011;24833;49.324;8.694;2023-08-06T08:20:01;0.20;;;0.20;;
38715;SDS011;24833;49.324;8.694;2023-08-06T08:22:28;0.30;;;0.30;;
38715;SDS011;24833;49.324;8.694;2023-08-06T08:24:55;0.35;;;0.28;;
38715;SDS011;24833;49.324;8.694;2023-08-06T08:27:22;0.50;;;0.28;;
38715;SDS011;24833;49.324;8.694;2023-08-06T08:29:49;0.45;;;0.30;;
38715;SDS011;24833;49.324;8.694;2023-08-06T08:32:16;1.33;;;0.38;;
38715;SDS011;24833;49.324;8.694;2023-08-06T08:34:43;0.45;;;0.38;;
38715;SDS011;24833;49.324;8.694;2023-08-06T08:37:10;0.30;;;0.20;;
38715;SDS011;24833;49.324;8.694;2023-08-06T08:39:37;0.20;;;0.20;;
38715;SDS011;24833;49.324;8.694;2023-08-06T08:42:05;0.52;;;0.20;;
38715;SDS011;24833;49.324;8.694;2023-08-06T08:44:33;0.20;;;0.20;;
38715;SDS011;24833;49.324;8.694;2023-08-06T08:47:06;1.20;;;0.22;;
38715;SDS011;24833;49.324;8.694;2023-08-06T08:49:35;0.50;;;0.20;;
38715;SDS011;24833;49.324;8.694;2023-08-06T08:52:03;2.17;;;0.20;;
38715;SDS011;24833;49.324;8.694;2023-08-06T08:54:37;0.95;;;0.32;;
38715;SDS011;24833;49.324;8.694;2023-08-06T08:57:05;0.28;;;0.28;;
38715;SDS011;24833;49.324;8.694;2023-08-06T08:59:33;1.65;;;0.13;;
38715;SDS011;24833;49.324;8.694;2023-08-06T09:02:00;0.45;;;0.30;;
38715;SDS011;24833;49.324;8.694;2023-08-06T09:04:31;0.13;;;0.13;;
38715;SDS011;24833;49.324;8.694;2023-08-06T09:07:00;0.05;;;0.05;;
38715;SDS011;24833;49.324;8.694;2023-08-06T09:09:30;0.30;;;0.20;;
38715;SDS011;24833;49.324;8.694;2023-08-06T09:12:00;0.43;;;0.20;;
38715;SDS011;24833;49.324;8.694;2023-08-06T09:14:32;0.10;;;0.10;;
38715;SDS011;24833;49.324;8.694;2023-08-06T09:16:59;0.85;;;0.10;;
38715;SDS011;24833;49.324;8.694;2023-08-06T09:19:27;0.10;;;0.10;;
38715;SDS011;24833;49.324;8.694;2023-08-06T09:21:55;0.03;;;0.03;;
38715;SDS011;24833;49.324;8.694;2023-08-06T09:24:23;0.00;;;0.00;;
38715;SDS011;24833;49.324;8.694;2023-08-06T09:26:50;0.43;;;0.20;;
38715;SDS011;24833;49.324;8.694;2023-08-06T09:29:17;0.00;;;0.00;;
38715;SDS011;24833;49.324;8.694;2023-08-06T09:31:48;0.10;;;0.10;;
38715;SDS011;24833;49.324;8.694;2023-08-06T09:34:21;1.30;;;0.10;;
38715;SDS011;24833;49.324;8.694;2023-08-06T09:36:50;0.20;;;0.20;;
38715;SDS011;24833;49.324;8.694;2023-08-06T09:39:21;0.55;;;0.50;;
38715;SDS011;24833;49.324;8.694;2023-08-06T09:41:58;0.20;;;0.15;;
38715;SDS011;24833;49.324;8.694;2023-08-06T09:44:28;0.80;;;0.20;;
38715;SDS011;24833;49.324;8.694;2023-08-06T09:46:58;0.20;;;0.20;;
38715;SDS011;24833;49.324;8.694;2023-08-06T09:49:28;0.35;;;0.15;;
38715;SDS011;24833;49.324;8.694;2023-08-06T09:52:12;0.20;;;0.20;;
38715;SDS011;24833;49.324;8.694;2023-08-06T09:54:42;0.45;;;0.13;;
38715;SDS011;24833;49.324;8.694;2023-08-06T09:57:11;0.15;;;0.15;;
38715;SDS011;24833;49.324;8.694;2023-08-06T09:59:38;0.10;;;0.10;;
38715;SDS011;24833;49.324;8.694;2023-08-06T10:02:12;0.63;;;0.13;;
38715;SDS011;24833;49.324;8.694;2023-08-06T10:04:41;0.38;;;0.08;;
38715;SDS011;24833;49.324;8.694;2023-08-06T10:07:21;0.35;;;0.22;;
38715;SDS011;24833;49.324;8.694;2023-08-06T10:09:50;0.38;;;0.10;;
38715;SDS011;24833;49.324;8.694;2023-08-06T10:12:17;0.10;;;0.10;;
38715;SDS011;24833;49.324;8.694;2023-08-06T10:14:46;0.75;;;0.20;;
38715;SDS011;24833;49.324;8.694;2023-08-06T10:17:16;0.47;;;0.30;;
38715;SDS011;24833;49.324;8.694;2023-08-06T10:19:43;0.10;;;0.10;;
38715;SDS011;24833;49.324;8.694;2023-08-06T10:22:12;0.20;;;0.20;;
38715;SDS011;24833;49.324;8.694;2023-08-06T10:24:57;0.10;;;0.10;;
38715;SDS011;24833;49.324;8.694;2023-08-06T10:27:36;0.10;;;0.10;;
38715;SDS011;24833;49.324;8.694;2023-08-06T10:30:26;1.00;;;0.20;;
38715;SDS011;24833;49.324;8.694;2023-08-06T10:32:59;0.20;;;0.20;;
38715;SDS011;24833;49.324;8.694;2023-08-06T10:36:03;0.90;;;0.20;;
38715;SDS011;24833;49.324;8.694;2023-08-06T10:38:27;0.30;;;0.30;;
38715;SDS011;24833;49.324;8.694;2023-08-06T10:43:29;0.10;;;0.10;;
38715;SDS011;24833;49.324;8.694;2023-08-06T10:46:02;0.30;;;0.30;;
38715;SDS011;24833;49.324;8.694;2023-08-06T10:51:07;0.40;;;0.30;;
38715;SDS011;24833;49.324;8.694;2023-08-06T10:53:36;0.22;;;0.22;;
38715;SDS011;24833;49.324;8.694;2023-08-06T10:56:17;0.20;;;0.20;;
38715;SDS011;24833;49.324;8.694;2023-08-06T10:58:49;0.40;;;0.40;;
38715;SDS011;24833;49.324;8.694;2023-08-06T11:01:17;0.20;;;0.20;;
38715;SDS011;24833;49.324;8.694;2023-08-06T11:03:45;0.25;;;0.20;;
38715;SDS011;24833;49.324;8.694;2023-08-06T11:06:19;0.10;;;0.10;;
38715;SDS011;24833;49.324;8.694;2023-08-06T11:08:49;0.85;;;0.32;;
38715;SDS011;24833;49.324;8.694;2023-08-06T11:11:21;0.20;;;0.20;;
38715;SDS011;24833;49.324;8.694;2023-08-06T11:13:50;0.40;;;0.40;;
38715;SDS011;24833;49.324;8.694;2023-08-06T11:16:18;0.70;;;0.40;;
38715;SDS011;24833;49.324;8.694;2023-08-06T11:18:53;0.20;;;0.20;;
38715;SDS011;24833;49.324;8.694;2023-08-06T11:21:22;1.30;;;0.28;;
38715;SDS011;24833;49.324;8.694;2023-08-06T11:23:51;0.32;;;0.32;;
38715;SDS011;24833;49.324;8.694;2023-08-06T11:26:19;0.45;;;0.40;;
38715;SDS011;24833;49.324;8.694;2023-08-06T11:28:49;0.80;;;0.47;;
38715;SDS011;24833;49.324;8.694;2023-08-06T11:31:23;0.40;;;0.40;;
38715;SDS011;24833;49.324;8.694;2023-08-06T11:33:53;1.95;;;0.50;;
38715;SDS011;24833;49.324;8.694;2023-08-06T11:36:30;0.68;;;0.68;;
38715;SDS011;24833;49.324;8.694;2023-08-06T11:39:06;0.60;;;0.60;;
38715;SDS011;24833;49.324;8.694;2023-08-06T11:41:35;0.75;;;0.70;;
38715;SDS011;24833;49.324;8.694;2023-08-06T11:44:06;0.45;;;0.45;;
38715;SDS011;24833;49.324;8.694;2023-08-06T11:46:54;0.60;;;0.60;;
38715;SDS011;24833;49.324;8.694;2023-08-06T11:52:20;1.42;;;0.77;;
38715;SDS011;24833;49.324;8.694;2023-08-06T11:55:04;1.00;;;0.77;;
38715;SDS011;24833;49.324;8.694;2023-08-06T11:57:37;0.75;;;0.68;;
38715;SDS011;24833;49.324;8.694;2023-08-06T12:00:08;1.90;;;0.93;;
38715;SDS011;24833;49.324;8.694;2023-08-06T12:02:43;0.90;;;0.90;;
38715;SDS011;24833;49.324;8.694;2023-08-06T12:05:13;0.68;;;0.68;;
38715;SDS011;24833;49.324;8.694;2023-08-06T12:07:45;1.02;;;0.80;;
38715;SDS011;24833;49.324;8.694;2023-08-06T12:10:15;0.93;;;0.90;;
38715;SDS011;24833;49.324;8.694;2023-08-06T12:12:43;3.60;;;1.10;;
38715;SDS011;24833;49.324;8.694;2023-08-06T12:15:10;0.95;;;0.90;;
38715;SDS011;24833;49.324;8.694;2023-08-06T12:17:38;1.17;;;0.88;;
38715;SDS011;24833;49.324;8.694;2023-08-06T12:20:05;1.00;;;0.90;;
38715;SDS011;24833;49.324;8.694;2023-08-06T12:22:34;1.73;;;1.30;;
38715;SDS011;24833;49.324;8.694;2023-08-06T12:25:09;1.42;;;1.00;;
38715;SDS011;24833;49.324;8.694;2023-08-06T12:27:41;1.73;;;1.17;;
38715;SDS011;24833;49.324;8.694;2023-08-06T12:30:10;1.17;;;1.08;;
38715;SDS011;24833;49.324;8.694;2023-08-06T12:32:39;3.28;;;1.30;;
38715;SDS011;24833;49.324;8.694;2023-08-06T12:35:07;1.10;;;1.00;;
38715;SDS011;24833;49.324;8.694;2023-08-06T12:37:34;1.20;;;0.95;;
38715;SDS011;24833;49.324;8.694;2023-08-06T12:40:02;1.42;;;1.10;;
38715;SDS011;24833;49.324;8.694;2023-08-06T12:42:50;1.00;;;1.00;;
38715;SDS011;24833;49.324;8.694;2023-08-06T12:45:17;1.75;;;1.30;;
38715;SDS011;24833;49.324;8.694;2023-08-06T12:47:48;1.17;;;1.08;;
38715;SDS011;24833;49.324;8.694;2023-08-06T12:50:16;2.05;;;1.15;;
38715;SDS011;24833;49.324;8.694;2023-08-06T12:52:44;2.08;;;1.10;;
38715;SDS011;24833;49.324;8.694;2023-08-06T12:55:11;1.20;;;0.95;;
38715;SDS011;24833;49.324;8.694;2023-08-06T12:57:38;2.08;;;1.35;;
38715;SDS011;24833;49.324;8.694;2023-08-06T13:00:23;1.10;;;1.00;;
38715;SDS011;24833;49.324;8.694;2023-08-06T13:02:51;2.85;;;1.25;;
38715;SDS011;24833;49.324;8.694;2023-08-06T13:05:18;1.20;;;1.10;;
38715;SDS011;24833;49.324;8.694;2023-08-06T13:07:46;2.55;;;1.30;;
38715;SDS011;24833;49.324;8.694;2023-08-06T13:10:13;1.60;;;1.23;;
38715;SDS011;24833;49.324;8.694;2023-08-06T13:12:40;1.38;;;0.98;;
38715;SDS011;24833;49.324;8.694;2023-08-06T13:15:07;1.13;;;1.02;;
38715;SDS011;24833;49.324;8.694;2023-08-06T13:17:34;1.40;;;1.17;;
38715;SDS011;24833;49.324;8.694;2023-08-06T13:20:02;2.50;;;1.20;;
38715;SDS011;24833;49.324;8.694;2023-08-06T13:22:30;1.42;;;1.20;;
38715;SDS011;24833;49.324;8.694;2023-08-06T13:24:57;1.50;;;1.30;;
38715;SDS011;24833;49.324;8.694;2023-08-06T13:27:24;1.85;;;1.17;;
38715;SDS011;24833;49.324;8.694;2023-08-06T13:29:51;0.65;;;0.65;;
38715;SDS011;24833;49.324;8.694;2023-08-06T13:32:18;1.20;;;1.10;;
38715;SDS011;24833;49.324;8.694;2023-08-06T13:34:45;1.58;;;1.00;;
38715;SDS011;24833;49.324;8.694;2023-08-06T13:37:12;1.55;;;1.08;;
38715;SDS011;24833;49.324;8.694;2023-08-06T13:39:39;0.80;;;0.80;;
38715;SDS011;24833;49.324;8.694;2023-08-06T13:42:06;1.10;;;1.00;;
38715;SDS011;24833;49.324;8.694;2023-08-06T13:44:33;1.05;;;1.00;;
38715;SDS011;24833;49.324;8.694;2023-08-06T13:47:02;3.75;;;1.13;;
38715;SDS011;24833;49.324;8.694;2023-08-06T13:49:29;0.63;;;0.63;;
38715;SDS011;24833;49.324;8.694;2023-08-06T13:51:56;1.67;;;1.05;;
38715;SDS011;24833;49.324;8.694;2023-08-06T13:54:41;1.27;;;1.00;;
38715;SDS011;24833;49.324;8.694;2023-08-06T13:57:08;1.52;;;0.90;;
38715;SDS011;24833;49.324;8.694;2023-08-06T13:59:35;0.88;;;0.73;;
38715;SDS011;24833;49.324;8.694;2023-08-06T14:02:02;1.27;;;1.10;;
38715;SDS011;24833;49.324;8.694;2023-08-06T14:04:29;0.68;;;0.65;;
38715;SDS011;24833;49.324;8.694;2023-08-06T14:06:57;1.35;;;0.90;;
38715;SDS011;24833;49.324;8.694;2023-08-06T14:09:24;1.13;;;0.82;;
38715;SDS011;24833;49.324;8.694;2023-08-06T14:11:51;1.10;;;0.80;;
38715;SDS011;24833;49.324;8.694;2023-08-06T14:14:18;1.30;;;0.70;;
38715;SDS011;24833;49.324;8.694;2023-08-06T14:16:52;0.80;;;0.80;;
38715;SDS011;24833;49.324;8.694;2023-08-06T14:19:21;1.23;;;0.70;;
38715;SDS011;24833;49.324;8.694;2023-08-06T14:21:48;0.80;;;0.68;;
38715;SDS011;24833;49.324;8.694;2023-08-06T14:24:17;0.60;;;0.60;;
38715;SDS011;24833;49.324;8.694;2023-08-06T14:26:45;1.65;;;0.68;;
38715;SDS011;24833;49.324;8.694;2023-08-06T14:29:12;2.10;;;0.90;;
38715;SDS011;24833;49.324;8.694;2023-08-06T14:31:40;0.85;;;0.75;;
38715;SDS011;24833;49.324;8.694;2023-08-06T14:34:07;1.35;;;0.68;;
38715;SDS011;24833;49.324;8.694;2023-08-06T14:36:34;1.08;;;0.75;;
38715;SDS011;24833;49.324;8.694;2023-08-06T14:39:01;0.50;;;0.50;;
38715;SDS011;24833;49.324;8.694;2023-08-06T14:41:28;0.70;;;0.70;;
38715;SDS011;24833;49.324;8.694;2023-08-06T14:43:55;0.40;;;0.40;;
38715;SDS011;24833;49.324;8.694;2023-08-06T14:46:23;0.57;;;0.57;;
38715;SDS011;24833;49.324;8.694;2023-08-06T14:48:50;1.08;;;0.70;;
38715;SDS011;24833;49.324;8.694;2023-08-06T14:51:17;0.80;;;0.65;;
38715;SDS011;24833;49.324;8.694;2023-08-06T14:53:47;0.63;;;0.60;;
38715;SDS011;24833;49.324;8.694;2023-08-06T14:56:14;1.25;;;0.70;;
38715;SDS011;24833;49.324;8.694;2023-08-06T14:58:42;0.50;;;0.50;;
38715;SDS011;24833;49.324;8.694;2023-08-06T15:01:09;1.10;;;0.82;;
38715;SDS011;24833;49.324;8.694;2023-08-06T15:03:36;0.90;;;0.90;;
38715;SDS011;24833;49.324;8.694;2023-08-06T15:06:03;0.73;;;0.70;;
38715;SDS011;24833;49.324;8.694;2023-08-06T15:11:01;1.33;;;0.80;;